WetterOnline ( https://www.wetteronline.de )

Wetter aktuell Longuich

Aktuelles Wetter: Deuselbach (483m)

6-stündlich | Neueste Meldungen
Ortszeit Temperatur Wetter
Di, 17.09. 20:00 12.9° C wolkenlos
Di, 17.09. 14:00 16.3° C wolkenlos
Di, 17.09. 8:00 11.8° C bedeckt
Di, 17.09. 2:00 14.3° C bedeckt
Mo, 16.09. 20:00 17.6° C bewölkt
Mo, 16.09. 14:00 20.0° C bedeckt
Mo, 16.09. 8:00 11.5° C bewölkt
Mo, 16.09. 2:00 12.5° C wolkenlos
Ortszeit Temperatur Wetter
Di, 17.09. 21:00 11.8° C fast wolkenlos
Di, 17.09. 20:50 11.8° C fast wolkenlos
Di, 17.09. 20:40 12.0° C leicht bewölkt
Di, 17.09. 20:30 12.1° C leicht bewölkt
Di, 17.09. 20:20 12.1° C leicht bewölkt
Di, 17.09. 20:10 12.4° C fast wolkenlos
Di, 17.09. 20:00 12.9° C wolkenlos
Di, 17.09. 19:30 14.1° C wolkenlos
Di, 17.09. 19:00 15.2° C fast wolkenlos
Di, 17.09. 18:30 15.6° C leicht bewölkt
Di, 17.09. 18:00 16.9° C fast wolkenlos
Ortszeit Relative Feuchte Sichtweite
Di, 17.09. 20:00 62% 60 km
Di, 17.09. 14:00 54% 45 km
Di, 17.09. 8:00 85% 50 km
Di, 17.09. 2:00 88% 13 km
Mo, 16.09. 20:00 63% 65 km
Mo, 16.09. 14:00 53% >70 km
Mo, 16.09. 8:00 74% 50 km
Mo, 16.09. 2:00 69% 65 km
Ortszeit Relative Feuchte Sichtweite
Di, 17.09. 21:00 67% 50 km
Di, 17.09. 20:50 67% -
Di, 17.09. 20:40 66% -
Di, 17.09. 20:30 65% 55 km
Di, 17.09. 20:20 65% -
Di, 17.09. 20:10 64% -
Di, 17.09. 20:00 62% 60 km
Di, 17.09. 19:30 58% 50 km
Di, 17.09. 19:00 54% 50 km
Di, 17.09. 18:30 53% 55 km
Di, 17.09. 18:00 50% 60 km
Ortszeit Niederschlagsmenge Niederschlagsart
Di, 17.09. 20:00 0.0 l/m2 in 12 Std. -
Di, 17.09. 14:00 0.0 l/m2 in 6 Std. -
Di, 17.09. 8:00 0.1 l/m2 in 12 Std. -
Di, 17.09. 2:00 0.1 l/m2 in 6 Std. Regen
Mo, 16.09. 20:00 0.0 l/m2 in 12 Std. -
Mo, 16.09. 14:00 0.0 l/m2 in 6 Std. -
Mo, 16.09. 8:00 0.0 l/m2 in 12 Std. -
Mo, 16.09. 2:00 0.0 l/m2 in 6 Std. -
Ortszeit Niederschlagsmenge Niederschlagsart
Di, 17.09. 21:00 0.0 l/m2 in 1 Std. -
Di, 17.09. 20:50 keine Meldung -
Di, 17.09. 20:40 keine Meldung -
Di, 17.09. 20:30 0.0 l/m2 in 1 Std. -
Di, 17.09. 20:20 keine Meldung -
Di, 17.09. 20:10 keine Meldung -
Di, 17.09. 20:00 0.0 l/m2 in 1 Std. -
Di, 17.09. 19:30 0.0 l/m2 in 1 Std. -
Di, 17.09. 19:00 0.0 l/m2 in 1 Std. -
Di, 17.09. 18:30 0.0 l/m2 in 1 Std. -
Di, 17.09. 18:00 0.0 l/m2 in 1 Std. -
Ortszeit Stärke Spitze Richtung
km/h Bft. km/h Grad Sektor
Di, 17.09. 20:00 7 2 32 340° N
Di, 17.09. 14:00 13 3 26 300° NW
Di, 17.09. 8:00 11 2 24 310° NW
Di, 17.09. 2:00 7 2 18 30° NO
Mo, 16.09. 20:00 7 2 25 300° NW
Mo, 16.09. 14:00 19 3 24 320° NW
Mo, 16.09. 8:00 7 2 11 130° SO
Mo, 16.09. 2:00 6 1 11 140° SO
Ortszeit Stärke Spitze Richtung
km/h Bft. km/h Grad Sektor
Di, 17.09. 21:00 4 1 11 250° W
Di, 17.09. 20:50 4 1 - 250° W
Di, 17.09. 20:40 2 1 - 310° NW
Di, 17.09. 20:30 6 1 11 320° NW
Di, 17.09. 20:20 6 1 - 320° NW
Di, 17.09. 20:10 7 2 - 340° N
Di, 17.09. 20:00 7 2 32 340° N
Di, 17.09. 19:30 22 4 31 350° N
Di, 17.09. 19:00 18 3 32 360° N
Di, 17.09. 18:30 18 3 32 10° N
Di, 17.09. 18:00 22 4 32 350° N
Ortszeit Untergrenze Bedeckung Gattung
total tief tief mittel hoch
Di, 17.09. 20:00 8700 m 0/8 0/8 - - -
Di, 17.09. 14:00 - 0/8 0/8 - - -
Di, 17.09. 8:00 630 m 8/8 8/8 - - -
Di, 17.09. 2:00 300 m 8/8 8/8 - - -
Mo, 16.09. 20:00 2400 m 8/8 7/8 - - -
Mo, 16.09. 14:00 3900 m 8/8 8/8 - - -
Mo, 16.09. 8:00 5700 m 8/8 5/8 - - -
Mo, 16.09. 2:00 - 0/8 0/8 - - -
Ortszeit Bedeckungsgrad in Achtel und Wolkenuntergrenze
Di, 17.09. 21:00 2(8400m)
Di, 17.09. 20:50 2(8400m)
Di, 17.09. 20:40 4(8400m)
Di, 17.09. 20:30 3(8400m)
Di, 17.09. 20:20 3(8400m)
Di, 17.09. 20:10 1(8700m)
Di, 17.09. 20:00 1(8700m)
Di, 17.09. 19:30 keine Wolken
Di, 17.09. 19:00 2(8700m)
Di, 17.09. 18:30 3(8100m)
Di, 17.09. 18:00 2(8100m)
Ortszeit Luftdruck NN (hPa) Tendenz (hPa in 3 Std.)
Di, 17.09. 20:00 1022 + 0,9
Di, 17.09. 14:00 1020 - 0,4
Di, 17.09. 8:00 1021 + 0,3
Di, 17.09. 2:00 1020 + 0,4
Mo, 16.09. 20:00 1019 + 0,1
Mo, 16.09. 14:00 1019 - 0,5
Mo, 16.09. 8:00 1022 - 0,6
Mo, 16.09. 2:00 1023 - 0,4
Ortszeit Luftdruck NN (hPa) Tendenz (hPa in 3 Std.)
Di, 17.09. 21:00 1023 + 1,2
Di, 17.09. 20:50 1023 keine Meldung
Di, 17.09. 20:40 1022 keine Meldung
Di, 17.09. 20:30 1022 + 1,1
Di, 17.09. 20:20 1022 keine Meldung
Di, 17.09. 20:10 1022 keine Meldung
Di, 17.09. 20:00 1022 + 0,9
Di, 17.09. 19:30 1021 + 0,9
Di, 17.09. 19:00 1021 + 0,8
Di, 17.09. 18:30 1021 + 0,5
Di, 17.09. 18:00 1020 0,0
Ortszeit Schneehöhe (cm)
Di, 17.09. 20:00 -
Di, 17.09. 14:00 -
Di, 17.09. 8:00 -
Di, 17.09. 2:00 -
Mo, 16.09. 20:00 -
Mo, 16.09. 14:00 -
Mo, 16.09. 8:00 -
Mo, 16.09. 2:00 -
Ortszeit Schneehöhe (cm)
Di, 17.09. 21:00 -
Di, 17.09. 20:50 -
Di, 17.09. 20:40 -
Di, 17.09. 20:30 -
Di, 17.09. 20:20 -
Di, 17.09. 20:10 -
Di, 17.09. 20:00 -
Di, 17.09. 19:30 -
Di, 17.09. 19:00 -
Di, 17.09. 18:30 -
Di, 17.09. 18:00 -
Link zu dieser Seite / Seite empfehlen

Das Wetter in ...